createdAt,value
2019-04-25T00:02:21.299Z,71.70
2019-04-25T00:04:51.544Z,71.78
2019-04-25T00:07:21.644Z,71.96
2019-04-25T00:09:53.327Z,71.72
2019-04-25T00:12:22.505Z,71.92
2019-04-25T00:14:51.584Z,72.08
2019-04-25T00:17:21.904Z,71.80
2019-04-25T00:19:51.103Z,71.89
2019-04-25T00:22:26.949Z,72.08
2019-04-25T00:25:17.747Z,72.32
2019-04-25T00:27:46.304Z,72.28
2019-04-25T00:30:15.853Z,72.37
2019-04-25T00:32:45.328Z,72.43
2019-04-25T00:35:14.356Z,71.64
2019-04-25T00:37:44.285Z,72.29
2019-04-25T00:40:13.697Z,72.21
2019-04-25T00:42:43.649Z,71.61
2019-04-25T00:45:14.027Z,71.90
2019-04-25T00:47:44.404Z,72.06
2019-04-25T00:50:13.414Z,72.37
2019-04-25T00:52:43.509Z,72.48
2019-04-25T00:55:13.218Z,72.81
2019-04-25T00:57:44.808Z,72.46
2019-04-25T01:00:24.013Z,72.57
2019-04-25T01:02:54.418Z,72.26
2019-04-25T01:05:23.576Z,71.55
2019-04-25T01:07:53.578Z,71.96
2019-04-25T01:10:23.249Z,71.75
2019-04-25T01:12:53.136Z,71.66
2019-04-25T01:15:23.752Z,70.96
2019-04-25T01:17:53.444Z,70.76
2019-04-25T01:20:22.113Z,71.66
2019-04-25T01:22:51.385Z,72.29
2019-04-25T01:25:20.441Z,71.17
2019-04-25T01:27:49.756Z,73.10
2019-04-25T01:30:21.460Z,73.64
2019-04-25T01:32:50.517Z,74.31
2019-04-25T01:35:50.728Z,75.08
2019-04-25T01:38:30.496Z,75.62
2019-04-25T01:41:34.213Z,75.55
2019-04-25T01:44:07.763Z,76.31
2019-04-25T01:46:38.636Z,76.08
2019-04-25T01:49:07.597Z,76.81
2019-04-25T01:51:36.239Z,76.81
2019-04-25T01:54:05.291Z,77.46
2019-04-25T01:56:34.020Z,77.54
2019-04-25T01:59:03.927Z,76.97
2019-04-25T02:01:34.124Z,76.78
2019-04-25T02:04:03.586Z,77.19
2019-04-25T02:06:33.513Z,77.64
2019-04-25T02:09:04.204Z,77.71
2019-04-25T02:11:39.918Z,77.63
2019-04-25T02:14:09.319Z,77.49
2019-04-25T02:16:38.364Z,77.55
2019-04-25T02:19:07.311Z,77.61
2019-04-25T02:21:36.611Z,78.02
2019-04-25T02:24:05.830Z,78.40
2019-04-25T02:26:35.111Z,78.27
2019-04-25T02:29:04.750Z,78.23
2019-04-25T02:31:34.777Z,78.48
2019-04-25T02:34:08.156Z,78.11
2019-04-25T02:36:34.940Z,77.93
2019-04-25T02:39:08.980Z,77.81
2019-04-25T02:41:37.677Z,78.17
2019-04-25T02:44:09.886Z,78.04
2019-04-25T02:46:50.966Z,78.00
2019-04-25T02:49:51.554Z,77.67
2019-04-25T02:52:27.802Z,77.75
2019-04-25T02:54:58.388Z,77.98
2019-04-25T02:57:27.064Z,78.13
2019-04-25T02:59:57.077Z,77.58
2019-04-25T03:02:26.752Z,76.85
2019-04-25T03:04:57.556Z,76.64
2019-04-25T03:07:26.338Z,76.80
2019-04-25T03:09:55.289Z,77.17
2019-04-25T03:12:30.587Z,77.63
2019-04-25T03:14:55.119Z,78.29
2019-04-25T03:17:24.746Z,78.80
2019-04-25T03:20:24.245Z,79.31
2019-04-25T03:22:54.641Z,79.95
2019-04-25T03:25:24.830Z,79.54
2019-04-25T03:27:54.150Z,79.68
2019-04-25T03:30:25.270Z,80.40
2019-04-25T03:32:55.953Z,79.69
2019-04-25T03:35:23.523Z,79.60
2019-04-25T03:37:52.172Z,79.24
2019-04-25T03:40:21.092Z,79.42
2019-04-25T03:42:50.090Z,79.30
2019-04-25T03:45:18.713Z,79.21
2019-04-25T03:47:47.678Z,79.44
2019-04-25T03:50:16.656Z,79.81
2019-04-25T03:52:45.352Z,80.32
2019-04-25T03:55:14.449Z,80.08
2019-04-25T03:57:44.294Z,79.88
2019-04-25T04:00:14.542Z,79.88
2019-04-25T04:02:44.304Z,80.70
2019-04-25T04:05:14.824Z,80.49
2019-04-25T04:07:43.915Z,80.31
2019-04-25T04:10:15.104Z,80.75
2019-04-25T04:12:44.323Z,79.98
2019-04-25T04:15:15.591Z,79.50
2019-04-25T04:17:55.585Z,79.00
2019-04-25T04:20:58.546Z,78.86
2019-04-25T04:23:44.619Z,79.36
2019-04-25T04:26:15.740Z,78.33
2019-04-25T04:28:44.884Z,78.13
2019-04-25T04:31:15.162Z,77.70
2019-04-25T04:33:44.068Z,77.59
2019-04-25T04:36:15.021Z,77.75
2019-04-25T04:38:44.265Z,78.05
2019-04-25T04:41:14.297Z,77.50
2019-04-25T04:43:44.151Z,77.12
2019-04-25T04:46:14.182Z,76.91
2019-04-25T04:48:43.927Z,76.88
2019-04-25T04:51:14.531Z,76.97
2019-04-25T04:53:43.826Z,76.92
2019-04-25T04:56:15.099Z,76.95
2019-04-25T04:58:43.288Z,76.73
2019-04-25T05:01:14.147Z,76.50
2019-04-25T05:03:56.054Z,76.52
2019-04-25T05:06:49.748Z,76.81
2019-04-25T05:09:23.842Z,76.95
2019-04-25T05:11:53.988Z,76.72
2019-04-25T05:14:24.271Z,76.68
2019-04-25T05:16:53.927Z,76.96
2019-04-25T05:19:23.854Z,77.66
2019-04-25T05:21:53.708Z,77.31
2019-04-25T05:24:24.967Z,76.96
2019-04-25T05:26:54.026Z,76.65
2019-04-25T05:29:24.122Z,76.92
2019-04-25T05:31:54.340Z,76.54
2019-04-25T05:34:25.618Z,77.02
2019-04-25T05:36:53.984Z,76.85
2019-04-25T05:39:24.075Z,77.10
2019-04-25T05:42:07.510Z,77.56
2019-04-25T05:44:35.590Z,77.46
2019-04-25T05:47:04.482Z,77.56
2019-04-25T05:49:34.250Z,77.46
2019-04-25T05:52:04.034Z,77.39
2019-04-25T05:54:34.373Z,77.88
2019-04-25T05:57:03.746Z,78.02
2019-04-25T05:59:33.736Z,78.26
2019-04-25T06:02:03.924Z,78.31
2019-04-25T06:04:33.556Z,78.33
2019-04-25T06:07:03.088Z,78.75
2019-04-25T06:09:54.665Z,78.89
2019-04-25T06:12:29.749Z,79.19
2019-04-25T06:14:58.626Z,79.18
2019-04-25T06:17:35.495Z,78.98
2019-04-25T06:20:06.335Z,78.99
2019-04-25T06:22:58.351Z,78.95
2019-04-25T06:25:32.886Z,79.39
2019-04-25T06:28:00.184Z,78.81
2019-04-25T06:30:31.690Z,78.55
2019-04-25T06:33:00.811Z,78.62
2019-04-25T06:35:29.632Z,78.90
2019-04-25T06:37:58.691Z,77.66
2019-04-25T06:40:30.349Z,78.50
2019-04-25T06:42:58.527Z,77.80
2019-04-25T06:45:40.534Z,77.87
2019-04-25T06:48:18.350Z,77.25
2019-04-25T06:50:47.893Z,77.18
2019-04-25T06:53:16.489Z,76.87
2019-04-25T06:55:45.450Z,76.63
2019-04-25T06:58:14.675Z,75.90
2019-04-25T07:00:57.141Z,76.01
2019-04-25T07:03:15.500Z,75.43
2019-04-25T07:05:44.878Z,75.72
2019-04-25T07:08:13.489Z,75.40
2019-04-25T07:10:42.175Z,75.44
2019-04-25T07:13:11.026Z,74.02
2019-04-25T07:15:39.735Z,74.20
2019-04-25T07:18:08.707Z,73.80
2019-04-25T07:20:37.401Z,73.89
2019-04-25T07:23:06.391Z,74.03
2019-04-25T07:25:38.013Z,73.33
2019-04-25T07:28:28.507Z,73.65
2019-04-25T07:31:33.521Z,72.71
2019-04-25T07:34:16.065Z,72.35
2019-04-25T07:36:45.685Z,72.23
2019-04-25T07:39:14.657Z,71.61
2019-04-25T07:41:44.146Z,70.67
2019-04-25T07:44:14.595Z,71.07
2019-04-25T07:46:43.826Z,70.97
2019-04-25T07:49:13.449Z,70.90
2019-04-25T07:51:43.204Z,70.93
2019-04-25T07:54:14.316Z,70.97
2019-04-25T07:56:43.805Z,69.41
2019-04-25T07:59:13.914Z,70.11
2019-04-25T08:01:43.615Z,69.61
2019-04-25T08:04:13.655Z,68.57
2019-04-25T08:06:44.533Z,69.29
2019-04-25T08:09:15.443Z,68.71
2019-04-25T08:11:44.125Z,67.15
2019-04-25T08:14:28.583Z,66.78
2019-04-25T08:16:59.236Z,67.22
2019-04-25T08:19:28.724Z,65.10
2019-04-25T08:21:59.331Z,62.50
2019-04-25T08:24:28.391Z,61.65
2019-04-25T08:26:58.246Z,61.27
2019-04-25T08:29:27.125Z,61.47
2019-04-25T08:31:55.830Z,62.17
2019-04-25T08:34:24.445Z,61.39
2019-04-25T08:36:54.310Z,61.22
2019-04-25T08:39:24.071Z,61.39
2019-04-25T08:41:54.118Z,60.46
2019-04-25T08:44:24.101Z,61.01
2019-04-25T08:46:53.529Z,58.88
2019-04-25T08:49:31.368Z,58.80
2019-04-25T08:52:00.197Z,57.37
2019-04-25T08:54:47.252Z,57.16
2019-04-25T08:57:23.625Z,57.00
2019-04-25T09:00:09.123Z,57.70
2019-04-25T09:02:59.848Z,56.40
2019-04-25T09:05:37.771Z,55.54
2019-04-25T09:08:07.238Z,54.81
2019-04-25T09:10:38.215Z,53.99
2019-04-25T09:13:06.656Z,53.93
2019-04-25T09:15:36.636Z,54.14
2019-04-25T09:18:05.683Z,54.11
2019-04-25T09:20:38.053Z,53.92
2019-04-25T09:23:04.980Z,54.80
2019-04-25T09:25:35.464Z,54.64
2019-04-25T09:28:04.514Z,54.22
2019-04-25T09:30:34.909Z,55.08
2019-04-25T09:33:04.657Z,53.63
2019-04-25T09:35:33.745Z,53.24
2019-04-25T09:38:03.442Z,51.81
2019-04-25T09:40:34.059Z,52.06
2019-04-25T09:43:03.628Z,52.53
2019-04-25T09:45:53.178Z,51.51
2019-04-25T09:48:35.357Z,50.92
2019-04-25T09:51:07.900Z,50.97
2019-04-25T09:53:43.419Z,52.08
2019-04-25T09:56:18.131Z,48.41
2019-04-25T09:58:53.832Z,47.15
2019-04-25T10:01:23.989Z,46.29
2019-04-25T10:03:54.384Z,45.06
2019-04-25T10:06:23.520Z,44.44
2019-04-25T10:08:52.230Z,45.09
2019-04-25T10:11:20.882Z,43.08
2019-04-25T10:14:00.536Z,42.55
2019-04-25T10:16:29.187Z,47.29
2019-04-25T10:18:58.114Z,46.28
2019-04-25T10:21:26.713Z,46.93
2019-04-25T10:23:56.253Z,47.27
2019-04-25T10:26:25.513Z,46.08
2019-04-25T10:28:54.208Z,45.30
2019-04-25T10:31:23.745Z,45.69
2019-04-25T10:33:53.516Z,46.00
2019-04-25T10:36:22.990Z,44.37
2019-04-25T10:39:04.060Z,45.35
2019-04-25T10:41:24.689Z,45.74
2019-04-25T10:43:54.665Z,44.82
2019-04-25T10:46:24.819Z,44.21
2019-04-25T10:48:55.956Z,42.44
2019-04-25T10:51:24.771Z,42.46
2019-04-25T10:53:55.024Z,41.73
2019-04-25T10:56:24.333Z,41.06
2019-04-25T10:58:54.823Z,38.07
2019-04-25T11:01:24.413Z,39.41
2019-04-25T11:04:02.340Z,40.44
2019-04-25T11:06:31.315Z,40.11
2019-04-25T11:08:59.940Z,39.38
2019-04-25T11:11:28.636Z,40.40
2019-04-25T11:13:58.747Z,41.86
2019-04-25T11:16:28.112Z,42.76
2019-04-25T11:18:57.517Z,43.72
2019-04-25T11:21:26.610Z,43.25
2019-04-25T11:23:55.657Z,42.52
2019-04-25T11:26:24.828Z,42.56
2019-04-25T11:28:54.459Z,41.59
2019-04-25T11:31:27.909Z,40.24
2019-04-25T11:33:56.809Z,39.35
2019-04-25T11:36:26.101Z,40.32
2019-04-25T11:39:17.090Z,40.25
2019-04-25T11:41:48.042Z,39.08
2019-04-25T11:44:16.738Z,38.52
2019-04-25T11:46:46.629Z,37.83
2019-04-25T11:49:15.414Z,37.89
2019-04-25T11:51:45.085Z,36.36
2019-04-25T11:54:15.068Z,37.22
2019-04-25T11:56:45.942Z,35.06
2019-04-25T11:59:15.671Z,35.03
2019-04-25T12:01:46.731Z,34.71
2019-04-25T12:04:15.822Z,35.13
2019-04-25T12:06:47.025Z,35.19
2019-04-25T12:09:15.216Z,34.52
2019-04-25T12:11:45.866Z,34.74
2019-04-25T12:14:15.006Z,34.62
2019-04-25T12:16:47.335Z,34.73
2019-04-25T12:19:14.073Z,35.23
2019-04-25T12:21:43.744Z,34.68
2019-04-25T12:24:13.772Z,33.45
2019-04-25T12:26:45.303Z,33.76
2019-04-25T12:29:14.421Z,32.55
2019-04-25T12:31:45.449Z,33.27
2019-04-25T12:34:14.239Z,32.33
2019-04-25T12:36:44.318Z,32.49
2019-04-25T12:39:14.130Z,36.17
2019-04-25T12:41:45.578Z,32.81
2019-04-25T12:44:53.952Z,32.80
2019-04-25T12:47:24.667Z,31.06
2019-04-25T12:49:54.849Z,32.94
2019-04-25T12:52:24.689Z,32.42
2019-04-25T12:54:57.070Z,32.60
2019-04-25T12:57:25.244Z,31.51
2019-04-25T12:59:55.333Z,31.32
2019-04-25T13:02:24.569Z,31.98
2019-04-25T13:04:55.219Z,31.34
2019-04-25T13:07:25.071Z,30.59
2019-04-25T13:09:54.004Z,30.16
2019-04-25T13:12:23.475Z,29.19
2019-04-25T13:14:52.474Z,28.12
2019-04-25T13:17:21.108Z,29.22
2019-04-25T13:19:50.452Z,28.40
2019-04-25T13:22:19.597Z,29.11
2019-04-25T13:24:48.282Z,29.92
2019-04-25T13:27:26.961Z,30.04
2019-04-25T13:30:21.178Z,30.98
2019-04-25T13:33:15.369Z,31.32
2019-04-25T13:36:00.347Z,30.18
2019-04-25T13:38:29.350Z,29.64
2019-04-25T13:40:59.406Z,29.95
2019-04-25T13:43:28.202Z,30.84
2019-04-25T13:45:57.116Z,31.20
2019-04-25T13:48:27.068Z,30.91
2019-04-25T13:50:56.101Z,30.02
2019-04-25T13:53:25.659Z,30.22
2019-04-25T13:55:55.036Z,29.69
2019-04-25T13:58:25.431Z,30.18
2019-04-25T14:00:54.362Z,29.00
2019-04-25T14:03:23.355Z,28.99
2019-04-25T14:05:53.843Z,29.22
2019-04-25T14:08:24.690Z,28.96
2019-04-25T14:10:54.272Z,28.83
2019-04-25T14:13:25.087Z,28.40
2019-04-25T14:16:04.713Z,28.72
2019-04-25T14:18:52.961Z,28.02
2019-04-25T14:21:24.631Z,29.58
2019-04-25T14:23:54.104Z,29.67
2019-04-25T14:26:23.621Z,29.61
2019-04-25T14:28:54.176Z,30.81
2019-04-25T14:31:33.764Z,30.48
2019-04-25T14:33:54.233Z,29.35
2019-04-25T14:36:25.743Z,28.90
2019-04-25T14:38:53.340Z,27.62
2019-04-25T14:41:22.856Z,28.41
2019-04-25T14:43:53.028Z,29.07
2019-04-25T14:46:21.657Z,29.23
2019-04-25T14:48:50.376Z,28.90
2019-04-25T14:51:19.035Z,28.33
2019-04-25T14:53:47.658Z,28.75
2019-04-25T14:56:30.294Z,27.85
2019-04-25T14:58:59.268Z,28.64
2019-04-25T15:01:28.294Z,28.66
2019-04-25T15:03:57.258Z,28.42
2019-04-25T15:06:26.117Z,28.43
2019-04-25T15:08:54.715Z,29.30
2019-04-25T15:11:24.520Z,29.89
2019-04-25T15:13:53.446Z,29.31
2019-04-25T15:16:22.378Z,29.08
2019-04-25T15:18:52.254Z,28.27
2019-04-25T15:21:20.895Z,27.50
2019-04-25T15:23:59.575Z,28.46
2019-04-25T15:26:20.156Z,28.16
2019-04-25T15:28:58.103Z,28.27
2019-04-25T15:31:27.878Z,29.10
2019-04-25T15:33:56.478Z,28.10
2019-04-25T15:36:31.343Z,28.22
2019-04-25T15:39:16.870Z,27.46
2019-04-25T15:41:53.880Z,27.66
2019-04-25T15:44:44.142Z,27.89
2019-04-25T15:47:15.901Z,27.89
2019-04-25T15:49:45.095Z,28.09
2019-04-25T15:52:14.406Z,27.94
2019-04-25T15:54:43.399Z,27.78
2019-04-25T15:57:12.709Z,27.25
2019-04-25T15:59:41.588Z,27.18
2019-04-25T16:02:12.531Z,27.60
2019-04-25T16:04:41.443Z,27.29
2019-04-25T16:07:10.725Z,26.99
2019-04-25T16:09:39.711Z,26.90
2019-04-25T16:12:09.628Z,26.93
2019-04-25T16:14:38.990Z,27.11
2019-04-25T16:17:07.829Z,27.30
2019-04-25T16:19:36.873Z,26.55
2019-04-25T16:22:05.679Z,26.53
2019-04-25T16:24:34.419Z,26.12
2019-04-25T16:27:03.694Z,26.14
2019-04-25T16:29:33.293Z,26.64
2019-04-25T16:32:04.463Z,26.48
2019-04-25T16:34:34.176Z,26.83
2019-04-25T16:37:03.354Z,26.41
2019-04-25T16:39:33.865Z,26.95
2019-04-25T16:42:02.777Z,27.55
2019-04-25T16:44:31.893Z,28.42
2019-04-25T16:47:00.866Z,27.52
2019-04-25T16:49:30.006Z,27.89
2019-04-25T16:51:58.566Z,28.52
2019-04-25T16:54:27.187Z,28.10
2019-04-25T16:56:55.804Z,28.06
2019-04-25T16:59:24.956Z,28.55
2019-04-25T17:01:54.009Z,28.55
2019-04-25T17:04:22.914Z,28.91
2019-04-25T17:06:51.548Z,28.53
2019-04-25T17:09:20.478Z,30.31
2019-04-25T17:11:49.479Z,36.93
2019-04-25T17:14:35.319Z,38.42
2019-04-25T17:17:32.619Z,39.08
2019-04-25T17:20:20.270Z,40.03
2019-04-25T17:22:49.242Z,40.53
2019-04-25T17:25:18.541Z,40.81
2019-04-25T17:27:47.537Z,43.30
2019-04-25T17:30:17.533Z,44.64
2019-04-25T17:33:04.148Z,46.67
2019-04-25T17:35:50.749Z,47.82
2019-04-25T17:38:25.107Z,49.13
2019-04-25T17:40:54.364Z,50.20
2019-04-25T17:43:22.977Z,50.28
2019-04-25T17:45:51.623Z,50.58
2019-04-25T17:48:20.265Z,50.69
2019-04-25T17:50:49.237Z,49.72
2019-04-25T17:53:20.237Z,51.64
2019-04-25T17:55:49.180Z,52.91
2019-04-25T17:58:18.610Z,52.71
2019-04-25T18:00:48.285Z,53.44
2019-04-25T18:03:18.405Z,53.47
2019-04-25T18:05:47.028Z,54.14
2019-04-25T18:08:15.986Z,55.35
2019-04-25T18:10:44.974Z,54.47
2019-04-25T18:13:13.870Z,56.03
2019-04-25T18:15:52.027Z,56.55
2019-04-25T18:18:43.525Z,57.29
2019-04-25T18:21:12.395Z,57.89
2019-04-25T18:24:00.056Z,59.59
2019-04-25T18:26:44.271Z,60.16
2019-04-25T18:29:14.052Z,60.96
2019-04-25T18:31:43.841Z,61.69
2019-04-25T18:34:18.947Z,62.48
2019-04-25T18:37:04.924Z,62.85
2019-04-25T18:39:40.647Z,63.75
2019-04-25T18:42:24.314Z,64.18
2019-04-25T18:44:52.948Z,64.72
2019-04-25T18:47:21.569Z,65.23
2019-04-25T18:49:50.417Z,65.55
2019-04-25T18:52:37.297Z,65.52
2019-04-25T18:55:16.643Z,65.76
2019-04-25T18:57:51.458Z,65.52
2019-04-25T19:00:39.280Z,65.33
2019-04-25T19:03:23.509Z,65.62
2019-04-25T19:05:56.190Z,65.88
2019-04-25T19:08:25.069Z,66.24
2019-04-25T19:10:54.549Z,66.23
2019-04-25T19:13:24.627Z,66.08
2019-04-25T19:15:53.338Z,67.25
2019-04-25T19:18:22.043Z,67.74
2019-04-25T19:20:50.674Z,68.11
2019-04-25T19:23:19.709Z,68.11
2019-04-25T19:25:48.582Z,68.64
2019-04-25T19:28:17.241Z,69.08
2019-04-25T19:30:47.137Z,69.36
2019-04-25T19:33:16.718Z,69.01
2019-04-25T19:35:45.743Z,68.51
2019-04-25T19:38:14.813Z,68.62
2019-04-25T19:41:02.828Z,69.67
2019-04-25T19:43:43.188Z,69.94
2019-04-25T19:46:12.335Z,70.04
2019-04-25T19:48:41.335Z,70.11
2019-04-25T19:51:10.676Z,70.47
2019-04-25T19:53:40.691Z,70.27
2019-04-25T19:56:10.021Z,70.80
2019-04-25T19:58:38.986Z,70.95
2019-04-25T20:01:07.693Z,71.06
2019-04-25T20:03:54.997Z,71.82
2019-04-25T20:06:26.573Z,72.08
2019-04-25T20:09:07.469Z,71.72
2019-04-25T20:11:45.633Z,71.81
2019-04-25T20:14:14.634Z,72.89
2019-04-25T20:16:46.044Z,73.46
2019-04-25T20:19:14.847Z,73.54
2019-04-25T20:21:44.843Z,73.31
2019-04-25T20:24:14.594Z,73.73
2019-04-25T20:26:44.828Z,73.48
2019-04-25T20:29:14.016Z,73.62
2019-04-25T20:31:42.911Z,74.18
2019-04-25T20:34:11.908Z,74.12
2019-04-25T20:36:40.908Z,74.49
2019-04-25T20:39:09.911Z,74.81
2019-04-25T20:41:38.882Z,74.54
2019-04-25T20:44:07.879Z,74.95
2019-04-25T20:46:36.844Z,75.46
2019-04-25T20:49:05.534Z,75.40
2019-04-25T20:51:34.753Z,75.27
2019-04-25T20:54:03.651Z,75.12
2019-04-25T20:56:32.645Z,75.80
2019-04-25T20:59:01.642Z,75.92
2019-04-25T21:01:30.967Z,75.48
2019-04-25T21:04:12.501Z,75.50
2019-04-25T21:06:34.561Z,75.61
2019-04-25T21:09:03.519Z,75.75
2019-04-25T21:11:32.439Z,76.08
2019-04-25T21:14:25.497Z,76.39
2019-04-25T21:17:00.632Z,76.37
2019-04-25T21:19:31.780Z,76.24
2019-04-25T21:22:01.096Z,76.31
2019-04-25T21:24:30.175Z,77.06
2019-04-25T21:26:59.070Z,77.29
2019-04-25T21:29:28.068Z,77.60
2019-04-25T21:31:56.819Z,77.33
2019-04-25T21:34:28.136Z,77.39
2019-04-25T21:36:56.271Z,77.18
2019-04-25T21:39:31.171Z,77.31
2019-04-25T21:42:07.059Z,77.58
2019-04-25T21:44:35.871Z,77.64
2019-04-25T21:47:04.495Z,77.78
2019-04-25T21:49:33.833Z,77.91
2019-04-25T21:52:03.124Z,78.41
2019-04-25T21:54:32.436Z,78.12
2019-04-25T21:57:01.941Z,77.82
2019-04-25T21:59:31.139Z,77.51
2019-04-25T22:02:00.334Z,77.51
2019-04-25T22:04:38.669Z,77.61
2019-04-25T22:06:59.964Z,77.39
2019-04-25T22:09:30.178Z,77.52
2019-04-25T22:11:59.696Z,77.48
2019-04-25T22:14:28.324Z,77.67
2019-04-25T22:16:57.685Z,77.72
2019-04-25T22:19:27.408Z,78.07
2019-04-25T22:21:56.452Z,77.92
2019-04-25T22:24:26.578Z,77.90
2019-04-25T22:26:58.804Z,78.45
2019-04-25T22:29:27.872Z,78.72
2019-04-25T22:32:21.952Z,78.84
2019-04-25T22:35:05.739Z,78.85
2019-04-25T22:37:35.304Z,79.10
2019-04-25T22:40:05.406Z,78.82
2019-04-25T22:42:34.218Z,78.59
2019-04-25T22:45:03.779Z,78.73
2019-04-25T22:47:33.021Z,78.55
2019-04-25T22:50:02.610Z,78.92
2019-04-25T22:52:31.928Z,78.88
2019-04-25T22:55:02.122Z,78.53
2019-04-25T22:57:31.117Z,79.25
2019-04-25T23:00:01.625Z,79.63
2019-04-25T23:02:58.187Z,79.15
2019-04-25T23:05:37.166Z,79.48
2019-04-25T23:08:06.543Z,79.49
2019-04-25T23:10:35.431Z,79.49
2019-04-25T23:13:04.689Z,79.45
2019-04-25T23:15:33.410Z,79.21
2019-04-25T23:18:02.903Z,79.32
2019-04-25T23:20:33.083Z,79.19
2019-04-25T23:23:01.946Z,79.04
2019-04-25T23:25:37.088Z,78.90
2019-04-25T23:28:14.003Z,78.85
2019-04-25T23:31:01.948Z,78.88
2019-04-25T23:33:30.888Z,79.16
2019-04-25T23:35:59.794Z,79.50
2019-04-25T23:38:28.681Z,79.54
2019-04-25T23:40:57.662Z,79.67
2019-04-25T23:43:26.706Z,79.69
2019-04-25T23:45:55.964Z,79.57
2019-04-25T23:48:25.461Z,79.61
2019-04-25T23:50:54.355Z,79.76
2019-04-25T23:53:23.247Z,79.66
2019-04-25T23:55:51.956Z,79.13
2019-04-25T23:58:20.685Z,79.54
